createdAt,value
2023-01-11T07:46:55.810Z,100488.52
2023-01-11T07:50:51.527Z,100499.29
2023-01-11T07:53:53.651Z,100510.54
2023-01-11T07:56:56.938Z,100500.73
2023-01-11T08:49:35.577Z,100468.23
2023-01-11T08:52:37.697Z,100471.86
2023-01-11T08:55:44.165Z,100467.58
2023-01-11T08:58:46.792Z,100460.04
2023-01-11T09:01:49.896Z,100463.39
2023-01-11T09:04:52.537Z,100468.25
2023-01-11T09:07:55.691Z,100471.19
2023-01-11T09:10:59.629Z,100475.86
2023-01-11T09:14:02.310Z,100485.17
2023-01-11T09:17:08.162Z,100479.82
2023-01-11T09:20:11.767Z,100468.41
2023-01-11T09:23:13.943Z,100470.11
2023-01-11T09:26:16.312Z,100479.40
2023-01-11T09:29:20.054Z,100483.70
2023-01-11T09:32:23.007Z,100484.75
2023-01-11T09:35:26.758Z,100486.33
2023-01-11T09:38:30.424Z,100476.85
2023-01-11T09:41:44.775Z,100467.20
2023-01-11T09:44:53.909Z,100459.95
2023-01-11T09:48:10.847Z,100454.96
2023-01-11T09:51:15.870Z,100451.35
2023-01-11T09:54:24.386Z,100442.04
2023-01-11T09:57:32.539Z,100438.59
2023-01-11T10:05:31.211Z,100427.87
2023-01-11T10:24:45.896Z,100387.54
2023-01-11T10:28:01.413Z,100387.19
2023-01-11T10:31:29.594Z,100383.33
2023-01-11T10:35:13.928Z,100384.65
2023-01-11T10:38:40.567Z,100386.20
2023-01-11T10:41:51.936Z,100382.85
2023-01-11T10:45:12.791Z,100380.36
2023-01-11T10:48:27.826Z,100378.03
2023-01-11T10:51:38.154Z,100367.45
2023-01-11T10:54:46.786Z,100372.21
2023-01-11T10:58:08.127Z,100373.28
2023-01-11T11:11:58.179Z,100367.02
2023-01-11T11:30:42.034Z,100357.95
2023-01-11T11:43:51.900Z,100348.55
2023-01-11T11:47:12.865Z,100353.04
2023-01-11T11:50:27.394Z,100356.70
2023-01-11T11:53:43.228Z,100364.23
2023-01-11T11:56:45.389Z,100369.91
2023-01-11T11:59:53.904Z,100376.60
2023-01-11T12:03:03.879Z,100372.05
2023-01-11T12:06:08.348Z,100358.77
2023-01-11T12:09:29.024Z,100354.43
2023-01-11T12:12:33.841Z,100351.96
2023-01-11T12:15:36.601Z,100344.97
2023-01-11T12:30:57.404Z,100354.54
2023-01-11T12:34:24.440Z,100348.94
2023-01-11T12:38:01.934Z,100346.10
2023-01-11T12:41:16.217Z,100349.38
2023-01-11T12:44:30.551Z,100350.59
2023-01-11T12:48:10.513Z,100355.77
2023-01-11T12:51:40.361Z,100348.09
2023-01-11T12:55:02.558Z,100347.86
2023-01-11T12:58:15.497Z,100350.92
2023-01-11T13:01:37.332Z,100347.31
2023-01-11T13:17:21.569Z,100353.29
2023-01-11T13:20:29.145Z,100362.62
2023-01-11T13:23:45.959Z,100365.33
2023-01-11T13:26:50.783Z,100374.19
2023-01-11T13:29:56.817Z,100383.56
2023-01-11T13:33:04.797Z,100382.32
2023-01-11T13:36:23.590Z,100376.66
2023-01-11T13:39:40.459Z,100385.58
2023-01-11T13:42:48.879Z,100388.78
2023-01-11T13:46:10.400Z,100389.38
2023-01-11T13:49:37.669Z,100389.85
2023-01-11T13:52:47.284Z,100386.70
2023-01-11T13:56:11.579Z,100386.95
2023-01-11T13:59:27.682Z,100389.45
2023-01-11T14:05:21.572Z,100397.04
2023-01-11T14:08:24.197Z,100402.80
2023-01-11T14:11:47.343Z,100405.94
2023-01-11T14:15:08.832Z,100408.02
2023-01-11T14:18:20.550Z,100411.46
2023-01-11T14:21:38.384Z,100415.80
2023-01-11T14:24:58.004Z,100415.27
2023-01-11T14:28:33.501Z,100417.86
2023-01-11T14:31:48.680Z,100415.80
2023-01-11T14:35:00.176Z,100423.23
2023-01-11T14:38:27.223Z,100425.63
2023-01-11T14:41:44.649Z,100419.08
2023-01-11T14:45:05.865Z,100416.14
2023-01-11T14:48:36.262Z,100415.09
2023-01-11T14:51:42.866Z,100411.80
2023-01-11T14:54:48.520Z,100412.66
2023-01-11T14:57:56.441Z,100426.98
2023-01-11T15:00:59.320Z,100428.86
2023-01-11T15:04:04.260Z,100430.58
2023-01-11T15:07:29.667Z,100429.36
2023-01-11T15:10:44.138Z,100436.91
2023-01-11T15:13:55.821Z,100437.40
2023-01-11T15:17:20.227Z,100440.66
2023-01-11T15:20:24.364Z,100438.58
2023-01-11T15:23:26.910Z,100433.02
2023-01-11T15:26:29.003Z,100435.09
2023-01-11T15:29:45.228Z,100438.00
2023-01-11T15:32:47.350Z,100439.04
2023-01-11T15:35:55.866Z,100436.80
2023-01-11T15:39:05.615Z,100427.16
2023-01-11T15:42:51.607Z,100409.09
2023-01-11T15:46:54.979Z,100407.69
2023-01-11T15:50:21.872Z,100411.78
2023-01-11T15:53:42.703Z,100402.83
2023-01-11T15:56:59.613Z,100397.30
2023-01-11T16:00:17.535Z,100395.21
2023-01-11T16:03:49.467Z,100396.45
2023-01-11T16:06:58.636Z,100401.98
2023-01-11T16:10:19.862Z,100403.52
2023-01-11T16:13:37.580Z,100411.65
2023-01-11T20:31:17.018Z,100256.97
2023-01-11T20:34:21.287Z,100255.06
2023-01-11T20:37:23.703Z,100259.02
2023-01-11T20:40:29.256Z,100257.14
2023-01-11T20:43:32.246Z,100256.46
2023-01-11T20:46:36.789Z,100255.80
2023-01-11T20:49:39.255Z,100257.19
2023-01-11T20:52:43.072Z,100251.36
2023-01-11T20:55:45.732Z,100248.42
2023-01-11T20:58:50.654Z,100246.00
2023-01-11T21:01:52.907Z,100250.45
2023-01-11T21:18:44.781Z,100253.13
2023-01-11T21:21:49.595Z,100255.00
2023-01-11T21:24:52.190Z,100259.79
2023-01-11T21:27:54.670Z,100258.06
2023-01-11T21:31:01.710Z,100256.85
2023-01-11T21:34:07.092Z,100256.16
2023-01-11T21:37:09.483Z,100255.95
2023-01-11T21:40:13.928Z,100261.27
2023-01-11T21:43:16.877Z,100262.31
2023-01-11T21:46:20.176Z,100266.27
2023-01-11T21:49:23.987Z,100268.48
2023-01-11T21:52:26.863Z,100265.91
2023-01-11T21:55:29.387Z,100266.95
2023-01-11T21:58:32.300Z,100270.55
2023-01-11T22:04:25.099Z,100271.57
2023-01-11T22:07:32.850Z,100269.15
2023-01-11T22:10:35.896Z,100266.74
2023-01-11T22:13:38.784Z,100265.68
